Time;durP1;ratioP1;P1;durP2;ratioP2;P2;SDS_P1;SDS_P2;PMS_P1;PMS_P2;Temp;Humidity;BMP_temperature;BMP_pressure;BME280_temperature;BME280_humidity;BME280_pressure;Samples;Min_cycle;Max_cycle;Signal;HPM_P1;HPM_P2
2021/05/12 01:31:10;;;;;;;1999.90;999.90;;;13.20;99.90;;;;;;5018354;28;20150;-80
2021/05/12 01:33:37;;;;;;;1999.90;999.90;;;13.20;99.90;;;;;;5017932;28;20161;-80
2021/05/12 01:36:05;;;;;;;1999.90;999.90;;;13.10;99.90;;;;;;5018365;28;20173;-80
2021/05/12 01:38:32;;;;;;;1999.90;999.90;;;13.10;99.90;;;;;;5018160;28;20281;-80
2021/05/12 01:40:59;;;;;;;1999.90;999.90;;;13.10;99.90;;;;;;5018399;28;20658;-80
2021/05/12 01:43:25;;;;;;;1999.90;999.90;;;13.10;99.90;;;;;;5000765;28;20416;-80
2021/05/12 01:45:50;;;;;;;1999.90;999.90;;;13.20;99.90;;;;;;5018051;28;20458;-80
2021/05/12 01:48:16;;;;;;;1999.90;999.90;;;13.20;99.90;;;;;;5017853;28;20577;-80
2021/05/12 01:50:42;;;;;;;1999.90;999.90;;;13.10;99.90;;;;;;5017816;28;20408;-81
2021/05/12 01:53:08;;;;;;;1999.90;999.90;;;13.10;99.90;;;;;;5018107;28;20172;-80
2021/05/12 01:55:35;;;;;;;1999.90;999.90;;;13.20;99.90;;;;;;5018311;28;20170;-80
2021/05/12 01:58:01;;;;;;;1999.90;999.90;;;13.10;99.90;;;;;;5017829;28;20244;-80
2021/05/12 02:00:32;;;;;;;1999.90;999.90;;;13.10;99.90;;;;;;5017253;28;20172;-81
2021/05/12 02:02:58;;;;;;;1999.90;999.90;;;13.10;99.90;;;;;;5017836;28;20404;-80
2021/05/12 02:05:26;;;;;;;1999.90;999.90;;;13.00;99.90;;;;;;5017668;28;20409;-81
2021/05/12 02:07:53;;;;;;;1999.90;999.90;;;13.00;99.90;;;;;;5017508;28;20504;-81
2021/05/12 02:10:19;;;;;;;1999.90;999.90;;;13.10;99.90;;;;;;5017769;28;20162;-81
2021/05/12 02:12:45;;;;;;;1999.90;999.90;;;13.10;99.90;;;;;;5017987;28;20742;-81
2021/05/12 02:15:12;;;;;;;1999.90;999.90;;;13.00;99.90;;;;;;5017787;28;20162;-80
2021/05/12 02:17:39;;;;;;;1999.90;999.90;;;13.10;99.90;;;;;;4999913;28;20444;-81
2021/05/12 02:20:06;;;;;;;1999.90;999.90;;;13.10;99.90;;;;;;5017996;28;20409;-80
2021/05/12 02:22:32;;;;;;;1999.90;999.90;;;13.10;99.90;;;;;;5017264;28;20176;-80
2021/05/12 02:24:58;;;;;;;1999.90;999.90;;;13.10;99.90;;;;;;5017909;28;20405;-80
2021/05/12 02:27:24;;;;;;;1999.90;999.90;;;13.10;99.90;;;;;;5017157;28;20464;-80
2021/05/12 02:29:50;;;;;;;1999.90;999.90;;;13.10;99.90;;;;;;5017884;28;20408;-80
2021/05/12 02:32:15;;;;;;;1999.90;999.90;;;13.10;99.90;;;;;;5016921;28;20166;-80
2021/05/12 02:34:41;;;;;;;1999.90;999.90;;;13.10;99.90;;;;;;5017608;28;20158;-80
2021/05/12 02:37:06;;;;;;;1999.90;999.90;;;13.10;99.90;;;;;;4999746;28;20256;-80
2021/05/12 02:39:32;;;;;;;1999.90;999.90;;;13.20;99.90;;;;;;5017183;28;20169;-80
2021/05/12 02:41:58;;;;;;;1999.90;999.90;;;13.20;99.90;;;;;;5017193;28;20171;-80
2021/05/12 02:44:24;;;;;;;1999.90;999.90;;;13.20;99.90;;;;;;4999214;28;20173;-80
2021/05/12 02:46:49;;;;;;;1999.90;999.90;;;13.10;99.90;;;;;;4999412;28;20198;-80
2021/05/12 02:49:15;;;;;;;1999.90;999.90;;;13.20;99.90;;;;;;4999329;28;20173;-80
2021/05/12 02:51:41;;;;;;;1999.90;999.90;;;13.20;99.90;;;;;;5016933;28;20705;-80
2021/05/12 02:54:07;;;;;;;1999.90;999.90;;;13.20;99.90;;;;;;5017540;28;20165;-80
2021/05/12 02:56:33;;;;;;;1999.90;999.90;;;13.10;99.90;;;;;;4999330;28;20162;-80
2021/05/12 02:58:58;;;;;;;1999.90;999.90;;;13.20;99.90;;;;;;5017016;28;20185;-80
2021/05/12 03:01:24;;;;;;;1999.90;999.90;;;13.20;99.90;;;;;;5017666;28;20404;-80
2021/05/12 03:03:50;;;;;;;1999.90;999.90;;;13.10;99.90;;;;;;5017194;28;20162;-80
2021/05/12 03:06:16;;;;;;;1999.90;999.90;;;13.20;99.90;;;;;;5017194;28;20226;-80
2021/05/12 03:08:42;;;;;;;1999.90;999.90;;;13.10;99.90;;;;;;5016774;28;20205;-80
2021/05/12 03:11:07;;;;;;;1999.90;999.90;;;13.20;99.90;;;;;;5017143;28;20245;-80
2021/05/12 03:13:34;;;;;;;1999.90;999.90;;;13.20;99.90;;;;;;5016846;28;20186;-80
2021/05/12 03:16:00;;;;;;;1999.90;999.90;;;13.20;99.90;;;;;;5016989;28;20166;-80
2021/05/12 03:18:26;;;;;;;1999.90;999.90;;;13.20;99.90;;;;;;5017051;28;20942;-80
2021/05/12 03:20:53;;;;;;;1999.90;999.90;;;13.20;99.90;;;;;;5017272;28;20656;-80
2021/05/12 03:23:19;;;;;;;1999.90;999.90;;;13.20;99.90;;;;;;5018968;28;20200;-80
2021/05/12 03:25:44;;;;;;;1999.90;999.90;;;13.20;99.90;;;;;;5020777;28;20496;-80
2021/05/12 03:28:10;;;;;;;1999.90;999.90;;;13.10;99.90;;;;;;5020373;28;20197;-80
2021/05/12 03:30:38;;;;;;;1999.90;999.90;;;13.10;99.90;;;;;;5020907;28;20162;-80
2021/05/12 03:33:09;;;;;;;1999.90;999.90;;;13.00;99.90;;;;;;5020626;28;20249;-80
2021/05/12 03:35:37;;;;;;;1999.90;999.90;;;13.00;99.90;;;;;;5019970;28;20415;-80
2021/05/12 03:38:04;;;;;;;1999.90;999.90;;;13.00;99.90;;;;;;5020897;28;20185;-80
2021/05/12 03:40:30;;;;;;;1999.90;999.90;;;13.00;99.90;;;;;;5003219;28;20420;-80
2021/05/12 03:42:58;;;;;;;1999.90;999.90;;;13.00;99.90;;;;;;5020577;28;20419;-80
2021/05/12 03:45:24;;;;;;;1999.90;999.90;;;13.00;99.90;;;;;;5020295;28;20412;-80
2021/05/12 03:47:51;;;;;;;1999.90;999.90;;;13.00;99.90;;;;;;5019681;28;20456;-80
2021/05/12 03:50:20;;;;;;;1999.90;999.90;;;13.00;99.90;;;;;;5019767;28;20397;-80
2021/05/12 03:52:46;;;;;;;1999.90;999.90;;;12.90;99.90;;;;;;5002019;28;20416;-80
2021/05/12 03:55:14;;;;;;;1999.90;999.90;;;12.90;99.90;;;;;;5019975;28;20169;-80
2021/05/12 03:57:40;;;;;;;1999.90;999.90;;;12.90;99.90;;;;;;5019971;28;20428;-80
2021/05/12 04:00:07;;;;;;;1999.90;999.90;;;12.90;99.90;;;;;;5002238;28;20170;-80
2021/05/12 04:02:33;;;;;;;1999.90;999.90;;;12.90;99.90;;;;;;5019325;28;20425;-80
2021/05/12 04:04:58;;;;;;;1999.90;999.90;;;12.90;99.90;;;;;;5019585;28;20405;-80
2021/05/12 04:07:24;;;;;;;1999.90;999.90;;;13.00;99.90;;;;;;5019965;28;20205;-80
2021/05/12 04:09:50;;;;;;;1999.90;999.90;;;13.00;99.90;;;;;;5020012;28;20165;-80
2021/05/12 04:12:16;;;;;;;1999.90;999.90;;;13.00;99.90;;;;;;5002716;28;20162;-80
2021/05/12 04:14:41;;;;;;;1999.90;999.90;;;13.00;99.90;;;;;;5019462;28;20220;-80
2021/05/12 04:17:07;;;;;;;1999.90;999.90;;;13.00;99.90;;;;;;5019722;28;20181;-80
2021/05/12 04:19:32;;;;;;;1999.90;999.90;;;13.10;99.90;;;;;;5019604;28;20166;-80
2021/05/12 04:21:58;;;;;;;1999.90;999.90;;;13.00;99.90;;;;;;5019442;28;20170;-80
2021/05/12 04:24:24;;;;;;;1999.90;999.90;;;13.00;99.90;;;;;;5019702;28;20166;-80
2021/05/12 04:26:51;;;;;;;1999.90;999.90;;;13.00;99.90;;;;;;5019393;28;20504;-80
2021/05/12 04:29:16;;;;;;;1999.90;999.90;;;13.00;99.90;;;;;;5019452;28;20412;-80
2021/05/12 04:31:43;;;;;;;1999.90;999.90;;;13.10;99.90;;;;;;5019384;28;20169;-80
2021/05/12 04:34:08;;;;;;;1999.90;999.90;;;13.10;99.90;;;;;;5018813;28;20170;-80
2021/05/12 04:36:35;;;;;;;1999.90;999.90;;;13.20;99.90;;;;;;5001890;28;20220;-80
2021/05/12 04:39:03;;;;;;;1999.90;999.90;;;13.10;99.90;;;;;;5001837;28;20200;-80
2021/05/12 04:41:28;;;;;;;1999.90;999.90;;;13.10;99.90;;;;;;5019187;28;20455;-80
2021/05/12 04:43:54;;;;;;;1999.90;999.90;;;13.00;99.90;;;;;;5019260;28;20530;-80
2021/05/12 04:46:21;;;;;;;1999.90;999.90;;;13.00;99.90;;;;;;5018690;28;20525;-80
2021/05/12 04:48:47;;;;;;;1999.90;999.90;;;13.00;99.90;;;;;;5018893;28;20448;-80
2021/05/12 04:51:13;;;;;;;1999.90;999.90;;;13.00;99.90;;;;;;5018681;28;20162;-80
2021/05/12 04:53:38;;;;;;;1999.90;999.90;;;13.00;99.90;;;;;;5001654;28;20557;-80
2021/05/12 04:56:04;;;;;;;1999.90;999.90;;;13.00;99.90;;;;;;5018606;28;20219;-80
2021/05/12 04:58:31;;;;;;;1999.90;999.90;;;13.00;99.90;;;;;;5018937;28;20193;-80
2021/05/12 05:00:56;;;;;;;1999.90;999.90;;;13.10;99.90;;;;;;5018574;28;20158;-80
2021/05/12 05:03:23;;;;;;;1999.90;999.90;;;13.20;99.90;;;;;;5019092;28;20181;-80
2021/05/12 05:05:48;;;;;;;1999.90;999.90;;;13.20;99.90;;;;;;5018432;28;20915;-80
2021/05/12 05:08:14;;;;;;;1999.90;999.90;;;13.30;99.90;;;;;;5102977;22;20220;-81
2021/05/12 05:10:40;;;;;;;1999.90;999.90;;;13.30;99.90;;;;;;5057735;28;20673;-81
2021/05/12 05:13:06;;;;;;;1999.90;999.90;;;13.20;99.90;;;;;;5059403;28;20403;-81
2021/05/12 05:15:32;;;;;;;1999.90;999.90;;;13.30;99.90;;;;;;5059357;28;20259;-81
2021/05/12 05:17:58;;;;;;;1999.90;999.90;;;13.30;99.90;;;;;;5058721;28;20430;-81
2021/05/12 05:20:26;;;;;;;1999.90;999.90;;;13.30;99.90;;;;;;5059251;28;20395;-81
2021/05/12 05:22:52;;;;;;;1999.90;999.90;;;13.40;99.90;;;;;;5059085;28;20230;-81
2021/05/12 05:25:17;;;;;;;1999.90;999.90;;;13.30;99.90;;;;;;5059680;28;20395;-80
2021/05/12 05:27:43;;;;;;;1999.90;999.90;;;13.20;99.90;;;;;;5058900;28;20204;-80
2021/05/12 05:30:09;;;;;;;1999.90;999.90;;;13.20;99.90;;;;;;5059130;28;20164;-81
2021/05/12 05:32:35;;;;;;;1999.90;999.90;;;13.30;99.90;;;;;;5058598;28;20165;-81
2021/05/12 05:35:01;;;;;;;1999.90;999.90;;;13.30;99.90;;;;;;5058759;28;20395;-81
2021/05/12 05:37:27;;;;;;;1999.90;999.90;;;13.30;99.90;;;;;;5058852;28;20196;-81
2021/05/12 05:39:55;;;;;;;1999.90;999.90;;;13.30;99.90;;;;;;5057621;28;20171;-81
2021/05/12 05:42:21;;;;;;;1999.90;999.90;;;13.30;99.90;;;;;;5057098;28;20752;-81
2021/05/12 05:44:48;;;;;;;1999.90;999.90;;;13.30;99.90;;;;;;5058618;28;20403;-81
2021/05/12 05:47:14;;;;;;;1999.90;999.90;;;13.40;99.90;;;;;;5056809;28;20522;-81
2021/05/12 05:49:40;;;;;;;1999.90;999.90;;;13.40;99.90;;;;;;5057939;28;20921;-81
2021/05/12 05:52:09;;;;;;;1999.90;999.90;;;13.50;99.90;;;;;;5058529;28;20402;-81
2021/05/12 05:54:49;;;;;;;1999.90;999.90;;;13.60;99.90;;;;;;5058109;28;20494;-81
2021/05/12 05:57:15;;;;;;;1999.90;999.90;;;13.60;99.90;;;;;;5057832;28;20419;-81
2021/05/12 05:59:42;;;;;;;1999.90;999.90;;;13.60;99.90;;;;;;5057325;28;20411;-80
2021/05/12 06:02:08;;;;;;;1999.90;999.90;;;13.60;99.90;;;;;;5056435;28;20415;-81
2021/05/12 06:04:34;;;;;;;1999.90;999.90;;;13.70;99.90;;;;;;5057946;28;20755;-81
2021/05/12 06:07:00;;;;;;;1999.90;999.90;;;13.70;99.90;;;;;;5057347;28;20445;-80
2021/05/12 06:09:26;;;;;;;1999.90;999.90;;;13.80;99.90;;;;;;5056404;28;20522;-81
2021/05/12 06:11:53;;;;;;;1999.90;999.90;;;13.80;99.90;;;;;;5057509;28;20200;-80
2021/05/12 06:14:20;;;;;;;1999.90;999.90;;;13.90;99.90;;;;;;5058160;28;20417;-80
2021/05/12 06:16:46;;;;;;;1999.90;999.90;;;13.90;99.90;;;;;;5057599;28;20470;-81
2021/05/12 06:19:12;;;;;;;1999.90;999.90;;;13.90;99.90;;;;;;5057963;28;20427;-79
2021/05/12 06:21:38;;;;;;;1999.90;999.90;;;14.00;99.90;;;;;;5056790;28;20418;-81
2021/05/12 06:24:04;;;;;;;1999.90;999.90;;;14.00;99.90;;;;;;5057802;28;20410;-81
2021/05/12 06:26:30;;;;;;;1999.90;999.90;;;13.90;99.90;;;;;;5057958;28;20928;-81
2021/05/12 06:28:55;;;;;;;1999.90;999.90;;;13.90;99.90;;;;;;5057913;28;20422;-81
2021/05/12 06:31:21;;;;;;;1999.90;999.90;;;13.90;99.90;;;;;;5058381;28;20171;-81
2021/05/12 06:33:47;;;;;;;1999.90;999.90;;;13.90;99.90;;;;;;5058465;28;20663;-81
2021/05/12 06:36:16;;;;;;;1999.90;999.90;;;13.90;99.90;;;;;;5056526;28;20165;-81
2021/05/12 06:38:43;;;;;;;1999.90;999.90;;;13.90;99.90;;;;;;5057572;28;20429;-82
2021/05/12 06:41:09;;;;;;;1999.90;999.90;;;13.80;99.90;;;;;;5056616;28;20422;-81
2021/05/12 06:43:35;;;;;;;1999.90;999.90;;;13.70;99.90;;;;;;5057348;28;20801;-81
2021/05/12 06:46:00;;;;;;;1999.90;999.90;;;13.80;99.90;;;;;;5057869;28;20402;-81
2021/05/12 06:48:26;;;;;;;1999.90;999.90;;;13.90;99.90;;;;;;5057364;28;20453;-81
2021/05/12 06:50:53;;;;;;;1999.90;999.90;;;14.00;99.90;;;;;;5056611;28;20651;-81
2021/05/12 06:53:31;;;;;;;1999.90;999.90;;;14.10;99.90;;;;;;5057832;28;20399;-81
2021/05/12 06:55:57;;;;;;;1999.90;999.90;;;14.20;99.90;;;;;;5058113;28;20376;-81
2021/05/12 06:58:23;;;;;;;1999.90;999.90;;;14.20;99.90;;;;;;5061898;28;20422;-81
2021/05/12 07:00:51;;;;;;;1999.90;999.90;;;14.30;99.90;;;;;;5062154;28;20403;-82
2021/05/12 07:03:22;;;;;;;1999.90;999.90;;;14.30;99.90;;;;;;5062516;28;20999;-80
2021/05/12 07:05:52;;;;;;;1999.90;999.90;;;14.40;99.90;;;;;;5063275;28;20391;-80
2021/05/12 07:08:18;;;;;;;1999.90;999.90;;;14.40;99.90;;;;;;5062287;28;20454;-81
2021/05/12 07:10:44;;;;;;;1999.90;999.90;;;14.50;99.90;;;;;;5061993;28;20410;-81
2021/05/12 07:13:10;;;;;;;1999.90;999.90;;;14.40;99.90;;;;;;5062563;28;20402;-81
2021/05/12 07:15:36;;;;;;;1999.90;999.90;;;14.40;99.90;;;;;;5060835;28;20234;-81
2021/05/12 07:18:02;;;;;;;1999.90;999.90;;;14.50;99.90;;;;;;5062643;28;20426;-81
2021/05/12 07:20:27;;;;;;;1999.90;999.90;;;14.40;99.90;;;;;;5060517;28;20188;-81
2021/05/12 07:23:01;;;;;;;1999.90;999.90;;;14.50;99.90;;;;;;5061597;28;20434;-81
2021/05/12 07:25:26;;;;;;;1999.90;999.90;;;14.50;99.90;;;;;;5062333;28;20160;-81
2021/05/12 07:27:52;;;;;;;1999.90;999.90;;;14.50;99.90;;;;;;5062016;28;20454;-80
2021/05/12 07:30:18;;;;;;;1999.90;999.90;;;14.60;99.90;;;;;;5061477;28;20165;-81
2021/05/12 07:32:45;;;;;;;1999.90;999.90;;;14.60;99.90;;;;;;5059965;28;20292;-81
2021/05/12 07:35:11;;;;;;;1999.90;999.90;;;14.70;99.90;;;;;;5061990;28;20736;-81
2021/05/12 07:37:37;;;;;;;1999.90;999.90;;;14.80;99.90;;;;;;5060797;28;20873;-81
2021/05/12 07:40:04;;;;;;;1999.90;999.90;;;14.80;99.90;;;;;;5061607;28;20487;-80
2021/05/12 07:42:30;;;;;;;1999.90;999.90;;;15.00;99.90;;;;;;5061460;28;20157;-81
2021/05/12 07:44:55;;;;;;;1999.90;999.90;;;15.10;99.90;;;;;;5062376;28;20438;-81
2021/05/12 07:47:21;;;;;;;1999.90;999.90;;;15.20;99.90;;;;;;5061621;28;20205;-80
2021/05/12 07:49:47;;;;;;;1999.90;999.90;;;15.30;99.90;;;;;;5061037;28;20164;-80
2021/05/12 07:52:14;;;;;;;1999.90;999.90;;;15.30;99.90;;;;;;5061654;28;20663;-81
2021/05/12 07:54:48;;;;;;;1999.90;999.90;;;15.40;99.90;;;;;;5060285;28;20556;-81
2021/05/12 07:57:14;;;;;;;1999.90;999.90;;;15.50;99.90;;;;;;5061560;28;20434;-81
2021/05/12 07:59:40;;;;;;;1999.90;999.90;;;15.50;99.90;;;;;;5059655;28;20451;-79
2021/05/12 08:02:07;;;;;;;1999.90;999.90;;;15.50;99.90;;;;;;5061289;28;20801;-81
2021/05/12 08:04:34;;;;;;;1999.90;999.90;;;15.60;99.90;;;;;;5061008;28;20453;-80
2021/05/12 08:07:00;;;;;;;1999.90;999.90;;;15.70;99.90;;;;;;5060411;28;20452;-81
2021/05/12 08:09:27;;;;;;;1999.90;999.90;;;15.80;99.90;;;;;;5060325;28;20424;-80
2021/05/12 08:11:53;;;;;;;1999.90;999.90;;;16.00;99.90;;;;;;5061029;28;20883;-79
2021/05/12 08:14:19;;;;;;;1999.90;999.90;;;16.20;99.90;;;;;;5059267;28;20412;-81
2021/05/12 08:16:45;;;;;;;1999.90;999.90;;;16.30;99.90;;;;;;5060672;28;20407;-80
2021/05/12 08:19:14;;;;;;;1999.90;999.90;;;16.30;99.90;;;;;;5059706;28;20453;-81
2021/05/12 08:21:41;;;;;;;1999.90;999.90;;;16.30;99.90;;;;;;5060506;28;20458;-80
2021/05/12 08:24:07;;;;;;;1999.90;999.90;;;16.30;99.90;;;;;;5059744;28;20816;-80
2021/05/12 08:26:33;;;;;;;1999.90;999.90;;;16.40;99.90;;;;;;5061002;28;20401;-79
2021/05/12 08:29:03;;;;;;;1999.90;999.90;;;16.50;99.90;;;;;;5060801;28;20442;-80
2021/05/12 08:31:32;;;;;;;1999.90;999.90;;;16.60;99.90;;;;;;5059139;28;20166;-81
2021/05/12 08:34:00;;;;;;;1999.90;999.90;;;16.50;99.90;;;;;;5061164;28;20409;-80
2021/05/12 08:36:25;;;;;;;1999.90;999.90;;;16.40;99.90;;;;;;5060596;28;20449;-79
2021/05/12 08:38:51;;;;;;;1999.90;999.90;;;16.30;99.90;;;;;;5059430;28;20468;-81
2021/05/12 08:41:18;;;;;;;1999.90;999.90;;;16.30;99.90;;;;;;5060574;28;20259;-80
2021/05/12 08:43:45;;;;;;;1999.90;999.90;;;16.20;99.90;;;;;;5060816;28;20164;-80
2021/05/12 08:46:17;;;;;;;1999.90;999.90;;;16.00;99.90;;;;;;5060616;28;20408;-79
2021/05/12 08:48:43;;;;;;;1999.90;999.90;;;15.90;99.90;;;;;;5059833;28;20465;-80
2021/05/12 08:51:10;;;;;;;1999.90;999.90;;;15.70;99.90;;;;;;5060019;28;20414;-80
2021/05/12 08:53:36;;;;;;;1999.90;999.90;;;15.60;99.90;;;;;;5060573;28;20538;-80
2021/05/12 08:56:04;;;;;;;1999.90;999.90;;;15.50;99.90;;;;;;5058647;28;20413;-80
2021/05/12 08:58:36;;;;;;;1999.90;999.90;;;15.50;99.90;;;;;;5060818;28;20427;-80
2021/05/12 09:01:02;;;;;;;1999.90;999.90;;;15.50;99.90;;;;;;5060999;28;20376;-81
2021/05/12 09:03:28;;;;;;;1999.90;999.90;;;15.50;99.90;;;;;;5058132;28;20787;-80
2021/05/12 09:05:58;;;;;;;1999.90;999.90;;;15.60;99.90;;;;;;5060241;28;20419;-80
2021/05/12 09:08:27;;;;;;;1999.90;999.90;;;15.70;99.90;;;;;;5058736;28;20527;-80
2021/05/12 09:10:57;;;;;;;1999.90;999.90;;;15.90;99.90;;;;;;5059340;28;20426;-80
2021/05/12 09:13:46;;;;;;;1999.90;999.90;;;16.00;99.90;;;;;;5058078;28;20419;-80
2021/05/12 09:16:35;;;;;;;1999.90;999.90;;;16.20;99.90;;;;;;5059335;28;20392;-80
2021/05/12 09:19:03;;;;;;;1999.90;999.90;;;16.40;99.90;;;;;;5058751;28;20434;-80
2021/05/12 09:21:53;;;;;;;1999.90;999.90;;;16.60;99.90;;;;;;5059177;28;20401;-80
2021/05/12 09:24:31;;;;;;;1999.90;999.90;;;16.80;99.90;;;;;;5059870;28;20388;-80
2021/05/12 09:27:02;;;;;;;1999.90;999.90;;;16.90;99.90;;;;;;5057927;28;20476;-80
2021/05/12 09:29:39;;;;;;;1999.90;999.90;;;17.00;99.90;;;;;;5059612;28;20397;-80
2021/05/12 09:32:09;;;;;;;1999.90;999.90;;;16.80;99.90;;;;;;5058026;28;20412;-80
2021/05/12 09:34:55;;;;;;;1999.90;999.90;;;17.00;99.90;;;;;;5058999;28;20413;-80
2021/05/12 09:37:42;;;;;;;1999.90;999.90;;;17.30;99.90;;;;;;5057273;28;21035;-80
2021/05/12 09:40:10;;;;;;;1999.90;999.90;;;17.50;99.90;;;;;;5058613;28;20475;-80
2021/05/12 09:42:38;;;;;;;1999.90;999.90;;;17.70;99.90;;;;;;5058184;28;20402;-80
2021/05/12 09:45:24;;;;;;;1999.90;999.90;;;18.00;99.90;;;;;;5058554;28;20410;-79
2021/05/12 09:48:01;;;;;;;1999.90;999.90;;;18.30;99.90;;;;;;5058263;28;20458;-79
2021/05/12 09:50:34;;;;;;;1999.90;999.90;;;18.30;99.90;;;;;;5058747;28;20407;-80
2021/05/12 09:53:08;;;;;;;1999.90;999.90;;;18.30;99.90;;;;;;5057713;28;20770;-80
2021/05/12 09:55:41;;;;;;;1999.90;999.90;;;18.10;99.90;;;;;;5058350;28;20849;-79
2021/05/12 09:58:11;;;;;;;1999.90;999.90;;;18.10;99.90;;;;;;5058937;28;20446;-80
2021/05/12 10:00:39;;;;;;;1999.90;999.90;;;18.10;99.90;;;;;;5057884;28;20388;-79
2021/05/12 10:03:06;;;;;;;1999.90;999.90;;;18.30;99.90;;;;;;5056392;28;20847;-79
2021/05/12 10:06:02;;;;;;;1999.90;999.90;;;18.20;99.90;;;;;;5058687;28;20905;-79
2021/05/12 10:08:32;;;;;;;1999.90;999.90;;;18.30;99.90;;;;;;5057447;28;20996;-79
2021/05/12 10:11:02;;;;;;;1999.90;999.90;;;18.60;99.90;;;;;;5059752;28;20405;-79
2021/05/12 10:13:29;;;;;;;1999.90;999.90;;;19.00;99.90;;;;;;5058009;28;20399;-80
2021/05/12 10:15:55;;;;;;;1999.90;999.90;;;19.10;99.90;;;;;;5056445;28;20910;-79
2021/05/12 10:18:21;;;;;;;1999.90;999.90;;;18.80;99.00;;;;;;5056307;28;20427;-78
2021/05/12 10:20:47;;;;;;;1999.90;999.90;;;18.70;97.30;;;;;;5056315;28;20438;-80
2021/05/12 10:23:13;;;;;;;1999.90;999.90;;;18.40;99.90;;;;;;5056365;28;20168;-80
2021/05/12 10:25:39;;;;;;;1999.90;999.90;;;18.40;99.90;;;;;;5058630;28;20411;-79
2021/05/12 10:28:07;;;;;;;1999.90;999.90;;;18.30;99.90;;;;;;5058361;28;20207;-80
2021/05/12 10:30:33;;;;;;;1999.90;999.90;;;18.30;99.90;;;;;;5058403;28;20411;-78
2021/05/12 10:32:59;;;;;;;1999.90;999.90;;;18.10;99.90;;;;;;5062932;28;20430;-78
2021/05/12 10:35:34;;;;;;;1999.90;999.90;;;17.90;99.90;;;;;;5063469;28;20770;-80
2021/05/12 10:38:00;;;;;;;1999.90;999.90;;;17.80;99.90;;;;;;5064791;28;20422;-78
2021/05/12 10:40:28;;;;;;;1999.90;999.90;;;17.70;99.90;;;;;;5064114;28;20398;-79
2021/05/12 10:43:14;;;;;;;1999.90;999.90;;;17.60;99.90;;;;;;5064778;28;20410;-78
2021/05/12 10:45:54;;;;;;;1999.90;999.90;;;17.50;99.90;;;;;;5064445;28;20387;-80
2021/05/12 10:48:30;;;;;;;1999.90;999.90;;;17.50;99.90;;;;;;5065974;28;20516;-81
2021/05/12 10:50:56;;;;;;;1999.90;999.90;;;17.30;99.90;;;;;;5065195;28;20405;-80
2021/05/12 10:53:22;;;;;;;1999.90;999.90;;;17.20;99.90;;;;;;5066046;28;20410;-80
2021/05/12 10:55:57;;;;;;;1999.90;999.90;;;17.20;99.90;;;;;;5064144;28;20910;-79
2021/05/12 10:58:26;;;;;;;1999.90;999.90;;;17.10;99.90;;;;;;5065167;28;20190;-79
2021/05/12 11:00:57;;;;;;;1999.90;999.90;;;17.00;99.90;;;;;;5065389;28;20402;-79
2021/05/12 11:03:25;;;;;;;1999.90;999.90;;;17.10;99.90;;;;;;5065061;28;20402;-79
2021/05/12 11:05:56;;;;;;;1999.90;999.90;;;17.10;99.90;;;;;;5065211;28;20402;-78
2021/05/12 11:08:22;;;;;;;1999.90;999.90;;;17.20;99.90;;;;;;5096965;22;20541;-79
2021/05/12 11:11:05;;;;;;;1999.90;999.90;;;17.30;99.90;;;;;;5043008;28;20915;-78
2021/05/12 11:13:33;;;;;;;1999.90;999.90;;;17.40;99.90;;;;;;5025377;28;20165;-79
2021/05/12 11:16:01;;;;;;;1999.90;999.90;;;17.50;99.90;;;;;;5042816;28;20471;-78
2021/05/12 11:18:36;;;;;;;1999.90;999.90;;;17.50;99.90;;;;;;5043242;28;20787;-78
2021/05/12 11:21:22;;;;;;;1999.90;999.90;;;17.50;99.90;;;;;;5025397;28;20434;-78
2021/05/12 11:24:19;;;;;;;1999.90;999.90;;;17.50;99.90;;;;;;5044005;28;20408;-78
2021/05/12 11:26:59;;;;;;;1999.90;999.90;;;17.50;99.90;;;;;;5042288;28;20499;-78
2021/05/12 11:32:09;;;;;;;1999.90;999.90;;;17.50;96.30;;;;;;5043666;28;20376;-79
2021/05/12 11:34:39;;;;;;;1999.90;999.90;;;17.40;95.80;;;;;;5025623;28;20444;-79
2021/05/12 11:37:12;;;;;;;1999.90;999.90;;;17.40;97.70;;;;;;5025982;28;20854;-79
2021/05/12 11:39:42;;;;;;;1999.90;999.90;;;17.30;99.90;;;;;;5043707;28;20388;-78
2021/05/12 11:42:31;;;;;;;1999.90;999.90;;;17.30;99.90;;;;;;5025377;28;20471;-78
2021/05/12 11:45:08;;;;;;;1999.90;999.90;;;17.40;99.90;;;;;;5039306;28;20408;-79
2021/05/12 11:47:35;;;;;;;1999.90;999.90;;;17.60;99.90;;;;;;5039795;28;20461;-79
2021/05/12 11:50:01;;;;;;;1999.90;999.90;;;17.80;99.90;;;;;;5039276;28;20484;-78
2021/05/12 11:52:31;;;;;;;1999.90;999.90;;;18.30;99.90;;;;;;5039426;28;20741;-79
2021/05/12 11:55:07;;;;;;;1999.90;999.90;;;18.80;91.50;;;;;;5040020;28;20399;-79
2021/05/12 11:57:33;;;;;;;1999.90;999.90;;;19.00;82.30;;;;;;5039199;28;20428;-79
2021/05/12 12:00:03;;;;;;;1999.90;999.90;;;19.30;69.10;;;;;;5021668;28;20565;-79
2021/05/12 12:02:29;;;;;;;1999.90;999.90;;;19.80;75.80;;;;;;5021824;28;20423;-78
2021/05/12 12:05:02;;;;;;;1999.90;999.90;;;20.20;80.40;;;;;;5040627;28;20404;-78
2021/05/12 12:07:29;;;;;;;1999.90;999.90;;;20.50;87.40;;;;;;5022717;28;20463;-79
2021/05/12 12:10:07;;;;;;;1999.90;999.90;;;20.90;51.80;;;;;;5039394;28;20425;-79
2021/05/12 12:12:34;;;;;;;1999.90;999.90;;;21.40;36.50;;;;;;5039917;28;20415;-79
2021/05/12 12:15:05;;;;;;;1999.90;999.90;;;21.20;35.40;;;;;;5039468;28;20496;-79
2021/05/12 12:17:31;;;;;;;1999.90;999.90;;;21.10;27.70;;;;;;5021910;28;20443;-78
2021/05/12 12:20:08;;;;;;;1999.90;999.90;;;20.80;26.50;;;;;;5039022;28;20403;-79
2021/05/12 12:22:34;;;;;;;1999.90;999.90;;;20.50;24.10;;;;;;5020393;28;20490;-78
2021/05/12 12:25:14;;;;;;;1999.90;999.90;;;20.00;33.80;;;;;;5020349;28;20416;-79
2021/05/12 12:27:41;;;;;;;1999.90;999.90;;;20.20;33.50;;;;;;5037807;28;20461;-77
2021/05/12 12:30:08;;;;;;;1999.90;999.90;;;19.90;28.40;;;;;;5020023;28;20417;-78
2021/05/12 12:32:35;;;;;;;1999.90;999.90;;;19.30;46.10;;;;;;5038576;28;20393;-78
2021/05/12 12:35:02;;;;;;;1999.90;999.90;;;19.30;51.30;;;;;;5038421;28;20493;-78
2021/05/12 12:37:31;;;;;;;1999.90;999.90;;;19.50;67.10;;;;;;5038539;28;20428;-78
2021/05/12 12:40:07;;;;;;;1999.90;999.90;;;19.50;52.00;;;;;;5038865;28;20414;-78
2021/05/12 12:42:35;;;;;;;1999.90;999.90;;;19.10;54.40;;;;;;5038249;28;20492;-78
2021/05/12 12:45:20;;;;;;;1999.90;999.90;;;19.00;87.80;;;;;;5037806;28;20439;-79
2021/05/12 12:47:57;;;;;;;1999.90;999.90;;;19.00;92.40;;;;;;5020113;28;20463;-79
2021/05/12 12:50:24;;;;;;;1999.90;999.90;;;19.20;91.60;;;;;;5037110;28;20388;-77
2021/05/12 12:52:53;;;;;;;1999.90;999.90;;;19.50;84.10;;;;;;5035084;28;20401;-77
2021/05/12 12:55:21;;;;;;;1999.90;999.90;;;19.10;89.90;;;;;;5035226;28;20415;-77
2021/05/12 12:58:06;;;;;;;1999.90;999.90;;;18.60;93.30;;;;;;5034972;28;20431;-77
2021/05/12 13:00:34;;;;;;;1999.90;999.90;;;18.50;96.60;;;;;;5035445;28;20470;-77
2021/05/12 13:03:30;;;;;;;1999.90;999.90;;;18.50;96.20;;;;;;5017240;28;20408;-77
2021/05/12 13:05:59;;;;;;;1999.90;999.90;;;18.40;87.10;;;;;;4996736;28;20462;-77
2021/05/12 13:08:34;;;;;;;1999.90;999.90;;;18.30;92.40;;;;;;5034822;28;20482;-76
2021/05/12 13:11:11;;;;;;;1999.90;999.90;;;18.10;84.00;;;;;;5016995;28;20403;-76
2021/05/12 13:13:55;;;;;;;1999.90;999.90;;;18.30;91.20;;;;;;5035101;28;20725;-76
2021/05/12 13:16:28;;;;;;;1999.90;999.90;;;18.20;91.10;;;;;;5016723;28;20408;-77
2021/05/12 13:19:02;;;;;;;1999.90;999.90;;;18.30;90.60;;;;;;5034993;28;20826;-77
2021/05/12 13:21:36;;;;;;;1999.90;999.90;;;18.70;91.60;;;;;;5034509;28;20415;-77
2021/05/12 13:24:02;;;;;;;1999.90;999.90;;;19.00;81.10;;;;;;5034486;28;20389;-77
2021/05/12 13:26:44;;;;;;;1999.90;999.90;;;19.30;67.30;;;;;;5017237;28;20416;-77
2021/05/12 13:29:11;;;;;;;1999.90;999.90;;;19.60;63.60;;;;;;5034494;28;20197;-77
2021/05/12 13:31:38;;;;;;;1999.90;999.90;;;19.90;50.60;;;;;;5034288;28;20392;-77
2021/05/12 13:34:07;;;;;;;1999.90;999.90;;;20.20;52.00;;;;;;5016513;28;20479;-78
2021/05/12 13:36:33;;;;;;;1999.90;999.90;;;20.40;73.30;;;;;;5016412;28;20420;-77
2021/05/12 13:39:02;;;;;;;1999.90;999.90;;;20.70;50.40;;;;;;5034093;28;20819;-78